createdAt,value
2023-06-13T00:00:34.147Z,6.16
2023-06-13T00:03:04.575Z,6.01
2023-06-13T00:05:35.464Z,5.95
2023-06-13T00:08:05.891Z,6.05
2023-06-13T00:10:36.257Z,6.18
2023-06-13T00:13:06.276Z,6.27
2023-06-13T00:15:38.138Z,6.30
2023-06-13T00:18:08.216Z,6.37
2023-06-13T00:20:39.450Z,6.33
2023-06-13T00:23:11.161Z,6.42
2023-06-13T00:25:41.748Z,6.45
2023-06-13T00:28:12.398Z,6.32
2023-06-13T00:30:45.657Z,5.98
2023-06-13T00:33:19.486Z,5.75
2023-06-13T00:35:50.013Z,5.73
2023-06-13T00:38:23.405Z,5.72
2023-06-13T00:40:54.342Z,5.67
2023-06-13T00:43:25.471Z,5.54
2023-06-13T00:45:57.397Z,5.51
2023-06-13T00:48:27.491Z,5.51
2023-06-13T00:50:59.756Z,5.45
2023-06-13T00:53:32.116Z,5.63
2023-06-13T00:56:09.298Z,5.70
2023-06-13T00:58:39.965Z,5.57
2023-06-13T01:01:12.225Z,5.45
2023-06-13T01:03:47.768Z,5.38
2023-06-13T01:06:19.054Z,5.36
2023-06-13T01:08:50.147Z,5.32
2023-06-13T01:11:33.802Z,5.22
2023-06-13T01:14:16.685Z,5.15
2023-06-13T01:16:51.693Z,5.15
2023-06-13T01:19:45.659Z,5.18
2023-06-13T01:22:23.403Z,5.09
2023-06-13T01:25:13.885Z,5.07
2023-06-13T01:27:51.648Z,5.03
2023-06-13T01:30:22.487Z,4.90
2023-06-13T01:32:54.770Z,4.83
2023-06-13T01:35:27.343Z,4.77
2023-06-13T01:37:58.137Z,4.69
2023-06-13T01:40:28.083Z,4.71
2023-06-13T01:42:57.995Z,4.71
2023-06-13T01:45:28.942Z,4.79
2023-06-13T01:48:31.874Z,4.89
2023-06-13T01:51:13.278Z,4.92
2023-06-13T01:53:51.946Z,4.90
2023-06-13T01:56:30.168Z,4.81
2023-06-13T01:59:06.598Z,4.81
2023-06-13T02:01:44.314Z,4.78
2023-06-13T02:04:14.566Z,4.81
2023-06-13T02:06:44.964Z,4.78
2023-06-13T02:09:16.560Z,4.81
2023-06-13T02:11:47.879Z,4.85
2023-06-13T02:14:17.950Z,4.87
2023-06-13T02:16:48.501Z,4.86
2023-06-13T02:19:18.613Z,4.76
2023-06-13T02:21:49.762Z,4.78
2023-06-13T02:24:21.295Z,4.79
2023-06-13T02:26:53.155Z,4.77
2023-06-13T02:29:23.158Z,4.72
2023-06-13T02:31:53.815Z,4.67
2023-06-13T02:34:24.038Z,4.63
2023-06-13T02:36:57.319Z,4.60
2023-06-13T02:39:27.348Z,4.53
2023-06-13T02:41:57.318Z,4.39
2023-06-13T02:44:27.734Z,4.40
2023-06-13T02:46:58.748Z,4.68
2023-06-13T02:49:29.168Z,4.77
2023-06-13T02:51:59.198Z,4.85
2023-06-13T02:54:29.684Z,4.82
2023-06-13T02:56:59.768Z,4.80
2023-06-13T02:59:30.404Z,4.85
2023-06-13T03:02:00.898Z,4.82
2023-06-13T03:04:31.563Z,4.82
2023-06-13T03:07:02.753Z,4.87
2023-06-13T03:09:33.517Z,4.83
2023-06-13T03:12:05.199Z,4.83
2023-06-13T03:14:37.728Z,4.82
2023-06-13T03:17:08.974Z,4.86
2023-06-13T03:19:40.152Z,4.80
2023-06-13T03:22:15.840Z,4.72
2023-06-13T03:24:48.050Z,4.78
2023-06-13T03:27:19.044Z,4.78
2023-06-13T03:29:49.941Z,4.76
2023-06-13T03:32:20.209Z,4.72
2023-06-13T03:34:52.132Z,4.64
2023-06-13T03:37:22.399Z,4.33
2023-06-13T03:39:52.882Z,4.33
2023-06-13T03:42:23.019Z,4.25
2023-06-13T03:44:54.132Z,4.08
2023-06-13T03:47:24.427Z,3.93
2023-06-13T03:49:55.756Z,4.02
2023-06-13T03:52:26.634Z,4.15
2023-06-13T03:54:57.202Z,4.28
2023-06-13T03:57:27.319Z,4.37
2023-06-13T03:59:58.064Z,4.49
2023-06-13T04:02:29.225Z,4.65
2023-06-13T04:04:59.854Z,4.82
2023-06-13T04:07:36.027Z,4.99
2023-06-13T04:10:08.920Z,5.08
2023-06-13T04:12:39.420Z,5.24
2023-06-13T04:15:10.466Z,5.39
2023-06-13T04:17:40.776Z,5.48
2023-06-13T04:20:13.273Z,5.57
2023-06-13T04:22:44.607Z,5.72
2023-06-13T04:25:15.388Z,5.89
2023-06-13T04:27:47.273Z,6.01
2023-06-13T04:30:19.077Z,6.12
2023-06-13T04:32:51.604Z,6.14
2023-06-13T04:35:24.639Z,6.10
2023-06-13T04:37:55.429Z,6.07
2023-06-13T04:40:33.830Z,6.11
2023-06-13T04:43:06.348Z,6.08
2023-06-13T04:45:38.436Z,6.14
2023-06-13T04:48:11.945Z,6.10
2023-06-13T04:50:46.622Z,6.19
2023-06-13T04:53:18.536Z,6.12
2023-06-13T04:55:50.471Z,6.07
2023-06-13T04:58:20.777Z,6.03
2023-06-13T05:00:51.423Z,6.13
2023-06-13T05:03:22.540Z,6.19
2023-06-13T05:05:53.459Z,6.26
2023-06-13T05:08:23.949Z,6.33
2023-06-13T05:10:55.768Z,6.36
2023-06-13T05:13:25.938Z,6.48
2023-06-13T05:15:57.492Z,6.53
2023-06-13T05:18:31.862Z,6.54
2023-06-13T05:21:02.752Z,6.62
2023-06-13T05:23:33.977Z,6.73
2023-06-13T05:26:04.766Z,6.69
2023-06-13T05:28:35.116Z,6.70
2023-06-13T05:31:05.909Z,6.73
2023-06-13T05:33:36.226Z,6.73
2023-06-13T05:36:07.337Z,6.79
2023-06-13T05:38:38.884Z,6.83
2023-06-13T05:41:09.578Z,6.84
2023-06-13T05:43:39.857Z,6.83
2023-06-13T05:46:11.805Z,6.87
2023-06-13T05:48:42.323Z,6.88
2023-06-13T05:51:13.151Z,6.75
2023-06-13T05:53:43.401Z,6.81
2023-06-13T05:56:14.237Z,6.88
2023-06-13T05:58:44.488Z,6.86
2023-06-13T06:01:15.174Z,6.79
2023-06-13T06:03:45.411Z,6.78
2023-06-13T06:06:16.627Z,6.69
2023-06-13T06:08:46.884Z,6.54
2023-06-13T06:11:17.969Z,6.58
2023-06-13T06:13:48.218Z,6.55
2023-06-13T06:16:19.019Z,6.50
2023-06-13T06:18:49.448Z,6.34
2023-06-13T06:21:20.232Z,6.32
2023-06-13T06:23:50.552Z,6.19
2023-06-13T06:26:23.338Z,6.18
2023-06-13T06:28:54.121Z,6.28
2023-06-13T06:31:26.616Z,6.23
2023-06-13T06:33:57.222Z,6.30
2023-06-13T06:36:27.954Z,6.38
2023-06-13T06:38:58.194Z,6.35
2023-06-13T06:41:29.297Z,6.32
2023-06-13T06:43:59.615Z,6.34
2023-06-13T06:46:32.703Z,6.33
2023-06-13T06:49:03.970Z,6.35
2023-06-13T06:51:34.983Z,6.28
2023-06-13T06:54:05.374Z,6.21
2023-06-13T06:56:36.167Z,6.13
2023-06-13T06:59:06.422Z,6.18
2023-06-13T07:01:37.707Z,6.17
2023-06-13T07:04:08.451Z,6.13
2023-06-13T07:06:39.616Z,6.07
2023-06-13T07:09:09.790Z,6.02
2023-06-13T07:11:40.480Z,6.01
2023-06-13T07:14:10.667Z,5.96
2023-06-13T07:16:41.525Z,5.94
2023-06-13T07:19:12.566Z,5.91
2023-06-13T07:21:43.197Z,5.91
2023-06-13T07:24:13.602Z,5.89
2023-06-13T07:26:44.295Z,5.99
2023-06-13T07:29:14.686Z,5.97
2023-06-13T07:31:45.583Z,6.02
2023-06-13T07:34:34.482Z,6.16
2023-06-13T07:37:06.810Z,6.19
2023-06-13T07:39:37.031Z,6.24
2023-06-13T07:42:11.726Z,6.11
2023-06-13T07:44:43.642Z,6.11
2023-06-13T07:47:14.366Z,6.09
2023-06-13T07:49:44.595Z,5.96
2023-06-13T07:52:15.253Z,6.01
2023-06-13T07:54:46.111Z,6.06
2023-06-13T07:57:33.747Z,5.92
2023-06-13T08:00:20.333Z,5.92
2023-06-13T08:02:51.152Z,5.94
2023-06-13T08:05:21.488Z,5.87
2023-06-13T08:07:53.321Z,5.87
2023-06-13T08:10:23.874Z,5.92
2023-06-13T08:12:55.696Z,5.85
2023-06-13T08:15:26.165Z,5.93
2023-06-13T08:17:59.727Z,5.85
2023-06-13T08:20:30.080Z,5.75
2023-06-13T08:23:02.092Z,5.69
2023-06-13T08:25:32.576Z,5.64
2023-06-13T08:28:03.301Z,5.54
2023-06-13T08:30:33.631Z,5.55
2023-06-13T08:33:04.857Z,5.56
2023-06-13T08:35:38.837Z,5.60
2023-06-13T08:38:09.637Z,5.83
2023-06-13T08:40:40.076Z,5.91
2023-06-13T08:43:10.906Z,6.02
2023-06-13T08:45:41.385Z,6.15
2023-06-13T08:48:12.504Z,6.19
2023-06-13T08:50:42.813Z,6.21
2023-06-13T08:53:15.676Z,6.24
2023-06-13T08:58:22.769Z,6.23
2023-06-13T09:00:54.346Z,6.17
2023-06-13T09:03:27.571Z,6.01
2023-06-13T09:05:59.286Z,6.07
2023-06-13T09:08:32.129Z,6.10
2023-06-13T09:11:02.766Z,6.17
2023-06-13T09:13:34.541Z,6.21
2023-06-13T09:16:05.057Z,6.20
2023-06-13T09:18:41.388Z,6.17
2023-06-13T09:21:13.004Z,6.18
2023-06-13T09:23:43.839Z,6.13
2023-06-13T09:26:14.632Z,6.10
2023-06-13T09:28:49.736Z,6.05
2023-06-13T09:31:20.660Z,6.00
2023-06-13T09:33:51.583Z,6.00
2023-06-13T09:36:22.146Z,5.98
2023-06-13T09:38:53.397Z,5.94
2023-06-13T09:41:24.254Z,5.90
2023-06-13T09:43:55.481Z,5.77
2023-06-13T09:46:27.006Z,5.70
2023-06-13T09:48:58.331Z,5.60
2023-06-13T09:51:31.788Z,5.52
2023-06-13T09:54:05.307Z,5.45
2023-06-13T09:56:35.918Z,5.40
2023-06-13T09:59:06.733Z,5.30
2023-06-13T10:01:37.313Z,5.25
2023-06-13T10:04:08.272Z,5.06
2023-06-13T10:06:38.945Z,4.83
2023-06-13T10:09:09.815Z,4.67
2023-06-13T10:11:43.459Z,4.57
2023-06-13T10:14:20.347Z,4.59
2023-06-13T10:17:07.496Z,4.66
2023-06-13T10:19:42.128Z,4.66
2023-06-13T10:22:17.189Z,4.70
2023-06-13T10:24:52.392Z,4.64
2023-06-13T10:27:24.802Z,4.66
2023-06-13T10:30:33.907Z,4.81
2023-06-13T10:33:25.011Z,4.90
2023-06-13T10:35:56.144Z,4.95
2023-06-13T10:38:57.213Z,5.03
2023-06-13T10:41:43.192Z,5.15
2023-06-13T10:44:38.621Z,5.33
2023-06-13T10:47:12.501Z,5.57
2023-06-13T10:49:45.604Z,5.72
2023-06-13T10:52:16.539Z,5.81
2023-06-13T10:54:55.162Z,5.89
2023-06-13T10:57:25.934Z,6.03
2023-06-13T10:59:57.976Z,6.18
2023-06-13T11:02:28.596Z,6.34
2023-06-13T11:05:03.694Z,6.45
2023-06-13T11:07:36.389Z,6.54
2023-06-13T11:10:11.161Z,6.49
2023-06-13T11:12:44.019Z,6.27
2023-06-13T11:15:28.757Z,5.99
2023-06-13T11:18:11.588Z,6.02
2023-06-13T11:20:52.112Z,6.22
2023-06-13T11:23:27.302Z,6.41
2023-06-13T11:25:57.742Z,6.60
2023-06-13T11:28:28.573Z,6.75
2023-06-13T11:31:03.465Z,6.93
2023-06-13T11:33:39.001Z,7.20
2023-06-13T11:36:09.774Z,7.44
2023-06-13T11:38:45.137Z,7.64
2023-06-13T11:41:15.429Z,7.71
2023-06-13T11:43:47.206Z,7.72
2023-06-13T11:46:17.663Z,7.83
2023-06-13T11:48:51.605Z,7.72
2023-06-13T11:51:22.720Z,7.58
2023-06-13T11:53:57.900Z,7.41
2023-06-13T11:56:30.275Z,7.51
2023-06-13T11:59:01.260Z,7.48
2023-06-13T12:01:32.077Z,7.42
2023-06-13T12:04:04.977Z,7.40
2023-06-13T12:06:35.312Z,7.42
2023-06-13T12:09:08.621Z,7.30
2023-06-13T12:11:39.301Z,7.51
2023-06-13T12:14:10.168Z,7.73
2023-06-13T12:16:41.529Z,7.78
2023-06-13T12:19:12.361Z,7.52
2023-06-13T12:21:43.480Z,7.44
2023-06-13T12:24:15.188Z,7.66
2023-06-13T12:26:46.417Z,7.81
2023-06-13T12:29:19.481Z,7.87
2023-06-13T12:31:50.361Z,8.06
2023-06-13T12:34:31.861Z,8.04
2023-06-13T12:37:07.090Z,8.31
2023-06-13T12:39:38.070Z,8.06
2023-06-13T12:42:12.974Z,8.45
2023-06-13T12:44:43.682Z,8.65
2023-06-13T12:47:14.090Z,8.77
2023-06-13T12:49:44.874Z,9.27
2023-06-13T12:52:19.043Z,10.06
2023-06-13T12:54:49.773Z,11.23
2023-06-13T12:57:21.738Z,12.58
2023-06-13T12:59:56.083Z,13.46
2023-06-13T13:02:27.239Z,14.73
2023-06-13T13:05:02.662Z,14.27
2023-06-13T13:07:33.546Z,13.27
2023-06-13T13:10:04.208Z,12.80
2023-06-13T13:12:34.512Z,12.98
2023-06-13T13:15:05.255Z,13.20
2023-06-13T13:17:35.466Z,13.52
2023-06-13T13:20:07.139Z,13.40
2023-06-13T13:22:37.920Z,13.12
2023-06-13T13:25:08.905Z,13.59
2023-06-13T13:27:39.122Z,13.50
2023-06-13T13:30:10.464Z,14.35
2023-06-13T13:32:40.798Z,14.71
2023-06-13T13:35:11.633Z,15.73
2023-06-13T13:37:41.819Z,16.45
2023-06-13T13:40:12.916Z,16.65
2023-06-13T13:42:43.111Z,17.17
2023-06-13T13:45:14.749Z,17.83
2023-06-13T13:47:45.396Z,18.40
2023-06-13T13:50:17.857Z,18.84
2023-06-13T13:52:48.178Z,18.62
2023-06-13T13:55:19.127Z,18.08
2023-06-13T13:57:49.358Z,17.15
2023-06-13T14:00:20.444Z,16.95
2023-06-13T14:02:51.365Z,16.74
2023-06-13T14:05:22.877Z,16.88
2023-06-13T14:07:54.123Z,16.98
2023-06-13T14:10:25.302Z,17.05
2023-06-13T14:12:55.748Z,16.91
2023-06-13T14:15:26.419Z,16.74
2023-06-13T14:17:57.598Z,16.85
2023-06-13T14:20:28.287Z,16.81
2023-06-13T14:22:58.790Z,16.50
2023-06-13T14:25:29.518Z,16.60
2023-06-13T14:27:59.753Z,16.60
2023-06-13T14:30:30.633Z,16.70
2023-06-13T14:33:00.823Z,16.42
2023-06-13T14:35:31.604Z,16.28
2023-06-13T14:38:01.788Z,16.48
2023-06-13T14:40:33.653Z,16.67
2023-06-13T14:43:04.662Z,16.32
2023-06-13T14:45:35.243Z,16.45
2023-06-13T14:48:05.959Z,16.32
2023-06-13T14:50:36.907Z,16.40
2023-06-13T14:53:07.185Z,16.25
2023-06-13T14:55:39.252Z,16.36
2023-06-13T14:58:09.634Z,16.47
2023-06-13T15:00:40.335Z,16.58
2023-06-13T15:03:10.639Z,16.53
2023-06-13T15:05:41.660Z,16.46
2023-06-13T15:08:11.922Z,16.48
2023-06-13T15:10:42.603Z,16.32
2023-06-13T15:13:13.329Z,16.25
2023-06-13T15:15:54.381Z,16.48
2023-06-13T15:18:25.328Z,16.45
2023-06-13T15:20:56.384Z,16.62
2023-06-13T15:23:26.796Z,17.09
2023-06-13T15:25:57.919Z,17.37
2023-06-13T15:28:29.270Z,17.38
2023-06-13T15:31:02.128Z,17.72
2023-06-13T15:33:38.393Z,18.03
2023-06-13T15:36:10.245Z,18.20
2023-06-13T15:38:41.758Z,18.77
2023-06-13T15:41:13.463Z,19.29
2023-06-13T15:43:44.417Z,19.72
2023-06-13T15:46:15.550Z,20.17
2023-06-13T15:48:45.919Z,20.32
2023-06-13T15:51:17.126Z,20.45
2023-06-13T15:53:48.513Z,20.50
2023-06-13T15:56:19.413Z,20.55
2023-06-13T15:58:50.022Z,20.54
2023-06-13T16:01:20.757Z,20.83
2023-06-13T16:03:51.528Z,21.12
2023-06-13T16:06:22.674Z,21.17
2023-06-13T16:08:55.355Z,21.41
2023-06-13T16:11:26.638Z,21.78
2023-06-13T16:14:00.137Z,21.33
2023-06-13T16:16:31.041Z,21.13
2023-06-13T16:19:01.559Z,21.21
2023-06-13T16:21:32.690Z,22.12
2023-06-13T16:24:03.056Z,22.52
2023-06-13T16:26:34.451Z,21.99
2023-06-13T16:29:05.688Z,21.91
2023-06-13T16:31:38.697Z,21.76
2023-06-13T16:34:09.344Z,22.52
2023-06-13T16:36:40.667Z,23.02
2023-06-13T16:39:11.814Z,22.70
2023-06-13T16:41:43.076Z,22.33
2023-06-13T16:44:13.476Z,22.29
2023-06-13T16:46:44.849Z,21.99
2023-06-13T16:49:16.272Z,21.44
2023-06-13T16:51:47.954Z,21.61
2023-06-13T16:54:19.094Z,21.84
2023-06-13T16:56:50.288Z,21.47
2023-06-13T16:59:20.959Z,21.00
2023-06-13T17:01:52.245Z,20.90
2023-06-13T17:04:23.141Z,20.46
2023-06-13T17:06:55.203Z,20.67
2023-06-13T17:09:27.659Z,20.47
2023-06-13T17:11:59.257Z,20.21
2023-06-13T17:14:29.916Z,19.51
2023-06-13T17:17:04.165Z,18.97
2023-06-13T17:19:35.715Z,19.05
2023-06-13T17:22:07.464Z,19.38
2023-06-13T17:24:38.421Z,19.25
2023-06-13T17:27:09.523Z,19.25
2023-06-13T17:29:39.908Z,19.10
2023-06-13T17:32:12.133Z,19.00
2023-06-13T17:34:43.338Z,18.66
2023-06-13T17:37:14.644Z,18.86
2023-06-13T17:39:45.071Z,18.81
2023-06-13T17:42:16.239Z,18.43
2023-06-13T17:44:46.854Z,18.22
2023-06-13T17:47:17.641Z,17.80
2023-06-13T17:49:47.742Z,18.09
2023-06-13T17:52:18.364Z,18.07
2023-06-13T17:54:49.377Z,18.34
2023-06-13T17:57:20.334Z,18.26
2023-06-13T17:59:50.510Z,18.35
2023-06-13T18:02:21.197Z,18.40
2023-06-13T18:04:51.569Z,18.34
2023-06-13T18:07:22.568Z,18.34
2023-06-13T18:09:52.937Z,18.39
2023-06-13T18:12:23.648Z,18.60
2023-06-13T18:14:53.804Z,18.77
2023-06-13T18:17:24.982Z,18.86
2023-06-13T18:19:55.285Z,18.69
2023-06-13T18:22:26.366Z,18.39
2023-06-13T18:24:56.669Z,18.08
2023-06-13T18:27:27.453Z,17.82
2023-06-13T18:29:57.979Z,17.64
2023-06-13T18:32:29.683Z,17.50
2023-06-13T18:35:00.432Z,17.46
2023-06-13T18:37:31.093Z,17.40
2023-06-13T18:40:01.253Z,17.27
2023-06-13T18:42:32.270Z,17.18
2023-06-13T18:45:02.428Z,17.07
2023-06-13T18:47:33.422Z,17.02
2023-06-13T18:50:04.472Z,16.93
2023-06-13T18:52:35.213Z,16.88
2023-06-13T18:55:06.063Z,16.87
2023-06-13T18:57:36.700Z,16.82
2023-06-13T19:00:08.827Z,16.72
2023-06-13T19:02:39.871Z,16.60
2023-06-13T19:05:10.517Z,16.65
2023-06-13T19:07:41.330Z,16.55
2023-06-13T19:10:11.832Z,16.45
2023-06-13T19:12:44.923Z,16.45
2023-06-13T19:15:15.699Z,16.36
2023-06-13T19:17:47.044Z,16.30
2023-06-13T19:20:17.509Z,16.26
2023-06-13T19:22:49.424Z,16.15
2023-06-13T19:25:21.042Z,15.97
2023-06-13T19:27:53.101Z,15.73
2023-06-13T19:30:26.701Z,15.58
2023-06-13T19:33:00.311Z,15.49
2023-06-13T19:35:32.086Z,15.42
2023-06-13T19:38:04.324Z,15.43
2023-06-13T19:40:34.761Z,15.35
2023-06-13T19:43:05.618Z,15.37
2023-06-13T19:45:35.877Z,15.32
2023-06-13T19:48:12.881Z,15.33
2023-06-13T19:50:43.350Z,15.36
2023-06-13T19:53:14.239Z,15.27
2023-06-13T19:55:44.728Z,15.27
2023-06-13T19:58:15.608Z,15.21
2023-06-13T20:00:46.575Z,15.16
2023-06-13T20:03:17.929Z,15.08
2023-06-13T20:05:49.183Z,15.12
2023-06-13T20:08:19.925Z,15.04
2023-06-13T20:10:50.590Z,15.07
2023-06-13T20:13:22.624Z,15.08
2023-06-13T20:15:54.584Z,15.06
2023-06-13T20:18:25.711Z,15.04
2023-06-13T20:20:55.833Z,15.04
2023-06-13T20:23:26.991Z,14.96
2023-06-13T20:25:57.622Z,14.89
2023-06-13T20:28:28.362Z,14.82
2023-06-13T20:30:58.503Z,14.81
2023-06-13T20:33:29.076Z,14.73
2023-06-13T20:36:00.182Z,14.64
2023-06-13T20:38:31.284Z,14.59
2023-06-13T20:41:01.540Z,14.59
2023-06-13T20:43:33.094Z,14.55
2023-06-13T20:46:03.329Z,14.51
2023-06-13T20:48:39.195Z,14.45
2023-06-13T20:51:09.740Z,14.41
2023-06-13T20:53:40.514Z,14.35
2023-06-13T20:56:10.800Z,14.33
2023-06-13T20:58:41.430Z,14.33
2023-06-13T21:01:13.494Z,14.32
2023-06-13T21:03:44.157Z,14.32
2023-06-13T21:06:14.361Z,14.31
2023-06-13T21:08:45.602Z,14.32
2023-06-13T21:11:15.955Z,14.33
2023-06-13T21:13:46.827Z,14.32
2023-06-13T21:16:24.113Z,14.34
2023-06-13T21:18:54.861Z,14.33
2023-06-13T21:21:25.214Z,14.31
2023-06-13T21:23:56.048Z,14.30
2023-06-13T21:26:26.280Z,14.31
2023-06-13T21:28:56.885Z,14.25
2023-06-13T21:31:27.596Z,14.27
2023-06-13T21:33:59.166Z,14.28
2023-06-13T21:36:29.921Z,14.28
2023-06-13T21:39:00.660Z,14.30
2023-06-13T21:41:30.962Z,14.24
2023-06-13T21:44:01.644Z,14.24
2023-06-13T21:46:32.055Z,14.03
2023-06-13T21:49:02.684Z,13.96
2023-06-13T21:51:34.033Z,13.96
2023-06-13T21:54:05.493Z,13.86
2023-06-13T21:56:35.698Z,13.90
2023-06-13T21:59:06.360Z,13.95
2023-06-13T22:01:36.845Z,13.98
2023-06-13T22:04:07.658Z,13.84
2023-06-13T22:06:41.523Z,13.74
2023-06-13T22:09:13.242Z,13.84
2023-06-13T22:11:46.694Z,13.96
2023-06-13T22:14:17.686Z,14.03
2023-06-13T22:16:54.056Z,14.08
2023-06-13T22:19:26.043Z,14.17
2023-06-13T22:21:56.579Z,14.15
2023-06-13T22:24:27.869Z,14.18
2023-06-13T22:26:58.336Z,14.11
2023-06-13T22:29:29.038Z,14.07
2023-06-13T22:31:59.330Z,14.04
2023-06-13T22:34:30.000Z,14.00
2023-06-13T22:37:00.163Z,14.01
2023-06-13T22:39:30.756Z,14.00
2023-06-13T22:42:01.612Z,14.01
2023-06-13T22:44:32.505Z,14.03
2023-06-13T22:47:02.816Z,14.06
2023-06-13T22:49:33.636Z,14.07
2023-06-13T22:52:05.896Z,13.89
2023-06-13T22:54:40.328Z,13.85
2023-06-13T22:57:10.559Z,13.86
2023-06-13T22:59:41.324Z,13.80
2023-06-13T23:02:11.788Z,13.91
2023-06-13T23:04:43.097Z,13.95
2023-06-13T23:07:13.239Z,13.95
2023-06-13T23:09:43.925Z,13.99
2023-06-13T23:12:14.160Z,14.00
2023-06-13T23:14:44.905Z,14.04
2023-06-13T23:17:16.888Z,14.06
2023-06-13T23:19:55.556Z,13.96
2023-06-13T23:22:30.413Z,13.95
2023-06-13T23:25:01.530Z,13.89
2023-06-13T23:27:34.207Z,13.86
2023-06-13T23:30:07.015Z,13.87
2023-06-13T23:32:39.694Z,13.93
2023-06-13T23:35:14.959Z,13.90
2023-06-13T23:37:45.351Z,13.89
2023-06-13T23:40:17.549Z,13.88
2023-06-13T23:42:47.870Z,13.88
2023-06-13T23:45:18.574Z,13.91
2023-06-13T23:47:48.761Z,13.87
2023-06-13T23:50:20.141Z,13.76
2023-06-13T23:52:50.411Z,13.68
2023-06-13T23:55:21.195Z,13.62
2023-06-13T23:57:51.645Z,13.41
